Aeroporto :
LOGIN :

Iscrizione | Disclaimer

   EN    FR    IT 

 










Sommario :    VFR   VFR Marginale   IFR   IFR Intensivo   IFR Molto Intensivo
Visibilità : 
Base nubi : 
>= 8 km
>= 3000ft
5 / 8 km
1000 / 3000 ft
1500m / 5 km
500 / 1000 ft
800 / 1500m
200 / 500 ft
< 800m
< 200 ft
Simboli :   Temporali  Nebbia  Neve Forte  Precipitazioni Forti  Vento > 20 kt
SIGMETs :   Varie  Temporali  Ghiacco  Turbolenza  Onda orograficha  Ceneri Vulcaniche






- Altitudine del aeroporto : 17 ft
- Codice IATA : MPL


LFMT - Montpellier Méditerranée

ULTIMO METAR :
  • 221200Z AUTO 14024KT 9999 BKN024/// BKN041/// OVC048/// ///CB 14/12 Q1003 TEMPO 17025G35KT 2000 SHRA BR BKN008TCU

METARs OBSOLETI :
  • 221130Z AUTO 13024KT 8000 -RADZ FEW025/// BKN043/// BKN049/// ///TCU 13/11 Q1003 TEMPO 17025G35KT SHRA BKN008TCU
  • 221100Z AUTO 14021KT 9999 SCT022 BKN029 BKN034 14/11 Q1004 TEMPO 17025G35KT SHRA BKN008TCU
  • 221030Z AUTO 15018KT 9999 SCT026 SCT062 OVC086 15/11 Q1005 TEMPO 17025G35KT SHRA BKN008TCU
  • 221000Z AUTO 15018KT 9999 BKN025 BKN034 OVC088 15/11 Q1005 TEMPO 17025G35KT SHRA BKN008TCU

TAF AMD TAF LFMT
Valido dal 22 a 11 ore il 23 a 09 ore UTC


221127Z 2211/2309 17015KT 9999 BKN020
TEMPO 2211/2309 17025G35KT 2000 SHRA BR BKN008TCU
PROB40
TEMPO 2217/2309 17030G45KT 0800 TSRA FG OVC008CB
ATIS : +33 4 67 13 11 70



MetMap, La meteo Aeronautica in un colpo d'occhio ! - Copyright ORBIFLY Dicembre 2007 - Disclaimer

ORBIFLY MET'MAP TEAM :

Programmazione e sviluppo : Alexandra Zaïnal
Concezione e sviluppo : Baudouin d'Aumeries
Co-Programmazione e sviluppo : Marc-Olivier Méhu
Supporto tecnico e logistico : Manuel Goepfert
Aiuto per la traduzione : Arnaldo La Scala

Contatto : metmap@orbifly.com




FONTI E CREDITI :

   NOAA